createdAt,value
2017-08-03T00:01:27.634Z,22.30
2017-08-03T00:03:56.003Z,22.40
2017-08-03T00:06:24.426Z,22.40
2017-08-03T00:08:52.026Z,22.30
2017-08-03T00:11:20.438Z,22.40
2017-08-03T00:13:48.030Z,22.40
2017-08-03T00:16:16.447Z,22.50
2017-08-03T00:18:44.025Z,22.40
2017-08-03T00:21:11.560Z,22.50
2017-08-03T00:23:39.122Z,22.40
2017-08-03T00:26:07.421Z,22.40
2017-08-03T00:28:35.044Z,22.40
2017-08-03T00:31:03.335Z,22.40
2017-08-03T00:33:30.923Z,22.40
2017-08-03T00:35:58.459Z,22.40
2017-08-03T00:38:26.049Z,22.40
2017-08-03T00:40:53.630Z,22.50
2017-08-03T00:43:21.237Z,22.40
2017-08-03T00:45:49.580Z,22.40
2017-08-03T00:48:17.203Z,22.30
2017-08-03T00:50:44.764Z,22.50
2017-08-03T00:53:12.390Z,22.50
2017-08-03T00:55:40.007Z,22.50
2017-08-03T00:58:07.636Z,22.50
2017-08-03T01:00:35.222Z,22.40
2017-08-03T01:03:02.838Z,22.30
2017-08-03T01:05:30.396Z,22.30
2017-08-03T01:07:58.096Z,22.40
2017-08-03T01:10:26.509Z,22.30
2017-08-03T01:12:55.269Z,22.30
2017-08-03T01:15:22.928Z,22.30
2017-08-03T01:17:50.533Z,22.30
2017-08-03T01:20:18.970Z,22.30
2017-08-03T01:22:46.564Z,22.30
2017-08-03T01:25:14.184Z,22.40
2017-08-03T01:27:41.757Z,22.20
2017-08-03T01:30:09.320Z,22.20
2017-08-03T01:32:36.982Z,22.20
2017-08-03T01:35:04.511Z,22.30
2017-08-03T01:37:32.147Z,22.30
2017-08-03T01:39:59.741Z,22.30
2017-08-03T01:42:27.353Z,22.30
2017-08-03T01:44:54.930Z,22.30
2017-08-03T01:47:22.597Z,22.30
2017-08-03T01:49:50.213Z,22.40
2017-08-03T01:52:18.109Z,22.40
2017-08-03T01:54:45.705Z,22.30
2017-08-03T01:57:13.236Z,22.30
2017-08-03T01:59:40.898Z,22.30
2017-08-03T02:02:08.500Z,22.30
2017-08-03T02:04:36.931Z,22.30
2017-08-03T02:07:04.615Z,22.30
2017-08-03T02:09:33.046Z,22.30
2017-08-03T02:12:00.586Z,22.20
2017-08-03T02:14:28.273Z,22.30
2017-08-03T02:16:56.660Z,22.30
2017-08-03T02:19:24.215Z,22.20
2017-08-03T02:21:51.897Z,22.20
2017-08-03T02:24:19.507Z,22.10
2017-08-03T02:26:47.164Z,22.20
2017-08-03T02:29:14.781Z,22.30
2017-08-03T02:31:42.440Z,22.30
2017-08-03T02:34:10.060Z,22.20
2017-08-03T02:36:38.495Z,22.30
2017-08-03T02:39:06.121Z,22.30
2017-08-03T02:41:33.739Z,22.30
2017-08-03T02:44:01.311Z,22.30
2017-08-03T02:46:28.858Z,22.20
2017-08-03T02:48:56.451Z,22.10
2017-08-03T02:51:24.798Z,22.10
2017-08-03T02:53:53.255Z,22.10
2017-08-03T02:56:20.823Z,22.10
2017-08-03T02:58:49.260Z,22.10
2017-08-03T03:01:16.795Z,22.10
2017-08-03T03:03:44.450Z,22.10
2017-08-03T03:06:12.765Z,22.10
2017-08-03T03:08:40.358Z,22.10
2017-08-03T03:11:08.721Z,22.00
2017-08-03T03:13:36.392Z,22.00
2017-08-03T03:16:03.923Z,22.00
2017-08-03T03:18:31.597Z,22.00
2017-08-03T03:21:00.000Z,21.90
2017-08-03T03:23:27.682Z,21.90
2017-08-03T03:25:55.325Z,21.90
2017-08-03T03:28:22.975Z,21.80
2017-08-03T03:30:50.633Z,21.70
2017-08-03T03:33:18.736Z,21.70
2017-08-03T03:35:46.409Z,21.80
2017-08-03T03:38:14.078Z,21.80
2017-08-03T03:40:42.385Z,21.80
2017-08-03T03:43:09.923Z,21.80
2017-08-03T03:45:37.569Z,21.70
2017-08-03T03:48:05.967Z,21.60
2017-08-03T03:50:33.860Z,21.60
2017-08-03T03:53:01.996Z,21.70
2017-08-03T03:55:30.744Z,21.70
2017-08-03T03:57:58.362Z,21.60
2017-08-03T04:00:26.730Z,21.70
2017-08-03T04:02:55.067Z,21.60
2017-08-03T04:05:22.640Z,21.60
2017-08-03T04:07:50.225Z,21.60
2017-08-03T04:10:17.900Z,21.50
2017-08-03T04:12:45.438Z,21.50
2017-08-03T04:15:12.971Z,21.50
2017-08-03T04:17:40.535Z,21.60
2017-08-03T04:20:08.095Z,21.60
2017-08-03T04:22:36.525Z,21.50
2017-08-03T04:25:04.075Z,21.50
2017-08-03T04:27:31.659Z,21.60
2017-08-03T04:30:00.240Z,21.60
2017-08-03T04:32:28.653Z,21.70
2017-08-03T04:34:56.345Z,21.60
2017-08-03T04:37:24.667Z,21.60
2017-08-03T04:39:52.306Z,21.60
2017-08-03T04:42:19.841Z,21.70
2017-08-03T04:44:47.414Z,21.70
2017-08-03T04:47:15.025Z,21.70
2017-08-03T04:49:42.597Z,21.70
2017-08-03T04:52:10.128Z,21.70
2017-08-03T04:54:37.778Z,21.80
2017-08-03T04:57:05.303Z,21.90
2017-08-03T04:59:32.859Z,21.90
2017-08-03T05:02:00.396Z,22.00
2017-08-03T05:04:28.026Z,22.00
2017-08-03T05:06:55.608Z,22.10
2017-08-03T05:09:23.179Z,22.10
2017-08-03T05:11:50.740Z,22.20
2017-08-03T05:14:19.032Z,22.30
2017-08-03T05:16:46.591Z,22.30
2017-08-03T05:19:14.199Z,22.30
2017-08-03T05:21:42.526Z,22.50
2017-08-03T05:24:10.059Z,22.50
2017-08-03T05:26:37.686Z,22.60
2017-08-03T05:29:05.310Z,22.70
2017-08-03T05:31:32.880Z,22.80
2017-08-03T05:34:00.432Z,22.90
2017-08-03T05:36:28.083Z,23.10
2017-08-03T05:38:55.751Z,23.20
2017-08-03T05:41:23.384Z,23.40
2017-08-03T05:43:51.018Z,23.50
2017-08-03T05:46:18.621Z,23.70
2017-08-03T05:48:47.001Z,23.90
2017-08-03T05:51:14.670Z,23.90
2017-08-03T05:53:42.249Z,24.10
2017-08-03T05:56:09.782Z,24.10
2017-08-03T05:58:37.426Z,24.20
2017-08-03T06:01:05.235Z,24.20
2017-08-03T06:03:32.885Z,24.30
2017-08-03T06:06:00.524Z,24.30
2017-08-03T06:08:28.188Z,24.30
2017-08-03T06:10:56.032Z,24.40
2017-08-03T06:13:23.598Z,24.30
2017-08-03T06:15:51.225Z,24.40
2017-08-03T06:18:18.888Z,24.50
2017-08-03T06:20:46.510Z,24.40
2017-08-03T06:23:14.093Z,24.40
2017-08-03T06:25:41.736Z,24.40
2017-08-03T06:28:09.403Z,24.40
2017-08-03T06:30:37.064Z,24.50
2017-08-03T06:33:04.712Z,24.40
2017-08-03T06:35:32.357Z,24.40
2017-08-03T06:37:59.980Z,24.40
2017-08-03T06:40:27.645Z,24.40
2017-08-03T06:42:55.759Z,24.50
2017-08-03T06:45:23.364Z,24.60
2017-08-03T06:47:50.974Z,24.70
2017-08-03T06:50:18.637Z,24.70
2017-08-03T06:52:46.203Z,24.80
2017-08-03T06:55:13.856Z,24.90
2017-08-03T06:57:41.480Z,25.10
2017-08-03T07:00:09.140Z,25.10
2017-08-03T07:02:36.744Z,25.10
2017-08-03T07:05:04.336Z,25.20
2017-08-03T07:07:31.899Z,25.40
2017-08-03T07:09:59.638Z,25.50
2017-08-03T07:12:27.975Z,25.80
2017-08-03T07:14:55.595Z,25.80
2017-08-03T07:17:23.250Z,25.90
2017-08-03T07:19:50.883Z,26.10
2017-08-03T07:22:18.529Z,26.30
2017-08-03T07:24:46.071Z,26.60
2017-08-03T07:27:13.728Z,26.80
2017-08-03T07:29:41.267Z,27.00
2017-08-03T07:32:08.831Z,27.10
2017-08-03T07:34:36.375Z,27.10
2017-08-03T07:37:03.951Z,27.20
2017-08-03T07:39:31.524Z,27.40
2017-08-03T07:41:59.099Z,27.70
2017-08-03T07:44:26.687Z,27.90
2017-08-03T07:46:54.392Z,28.10
2017-08-03T07:49:22.062Z,28.40
2017-08-03T07:51:49.681Z,28.60
2017-08-03T07:54:17.398Z,28.80
2017-08-03T07:56:46.023Z,29.20
2017-08-03T07:59:15.157Z,29.20
2017-08-03T08:01:43.460Z,29.50
2017-08-03T08:04:11.121Z,29.40
2017-08-03T08:06:38.721Z,29.50
2017-08-03T08:09:06.272Z,29.50
2017-08-03T08:11:33.896Z,29.50
2017-08-03T08:14:02.221Z,29.60
2017-08-03T08:16:29.812Z,29.60
2017-08-03T08:18:58.121Z,29.50
2017-08-03T08:21:25.800Z,29.50
2017-08-03T08:23:53.433Z,29.50
2017-08-03T08:26:21.082Z,29.40
2017-08-03T08:28:48.612Z,29.40
2017-08-03T08:31:16.238Z,29.40
2017-08-03T08:33:43.868Z,29.60
2017-08-03T08:36:11.508Z,29.80
2017-08-03T08:38:39.117Z,29.90
2017-08-03T08:41:06.700Z,30.00
2017-08-03T08:43:34.324Z,30.30
2017-08-03T08:46:02.720Z,30.50
2017-08-03T08:48:30.356Z,30.50
2017-08-03T08:50:58.005Z,30.50
2017-08-03T08:53:25.596Z,30.50
2017-08-03T08:55:53.230Z,30.60
2017-08-03T08:58:20.839Z,30.50
2017-08-03T09:00:49.252Z,30.30
2017-08-03T09:03:16.835Z,30.30
2017-08-03T09:05:44.462Z,30.20
2017-08-03T09:08:12.068Z,30.20
2017-08-03T09:10:39.697Z,30.30
2017-08-03T09:13:07.275Z,30.40
2017-08-03T09:15:34.909Z,30.40
2017-08-03T09:18:02.556Z,30.50
2017-08-03T09:20:30.157Z,30.50
2017-08-03T09:22:57.785Z,30.50
2017-08-03T09:25:25.348Z,30.60
2017-08-03T09:27:53.932Z,30.40
2017-08-03T09:30:21.553Z,30.40
2017-08-03T09:32:49.119Z,30.10
2017-08-03T09:35:16.706Z,30.00
2017-08-03T09:37:44.268Z,30.00
2017-08-03T09:40:11.856Z,30.20
2017-08-03T09:42:40.240Z,30.60
2017-08-03T09:45:07.874Z,30.50
2017-08-03T09:47:36.253Z,30.50
2017-08-03T09:50:03.837Z,30.50
2017-08-03T09:52:31.391Z,30.50
2017-08-03T09:54:58.981Z,30.70
2017-08-03T09:57:26.683Z,31.00
2017-08-03T09:59:54.368Z,31.20
2017-08-03T10:02:22.692Z,31.50
2017-08-03T10:04:50.314Z,31.50
2017-08-03T10:07:17.947Z,31.40
2017-08-03T10:09:46.152Z,31.40
2017-08-03T10:12:13.806Z,31.40
2017-08-03T10:14:41.416Z,31.50
2017-08-03T10:17:09.039Z,31.60
2017-08-03T10:19:36.592Z,31.60
2017-08-03T10:22:04.172Z,31.80
2017-08-03T10:24:31.736Z,31.90
2017-08-03T10:26:59.335Z,31.70
2017-08-03T10:29:26.957Z,31.80
2017-08-03T10:31:54.594Z,31.90
2017-08-03T10:34:22.903Z,32.30
2017-08-03T10:36:50.508Z,32.30
2017-08-03T10:39:18.127Z,32.30
2017-08-03T10:41:45.735Z,32.30
2017-08-03T10:44:13.367Z,32.10
2017-08-03T10:46:40.921Z,32.10
2017-08-03T10:49:08.569Z,32.00
2017-08-03T10:51:36.182Z,32.20
2017-08-03T10:54:03.783Z,32.00
2017-08-03T10:56:31.339Z,31.70
2017-08-03T10:58:58.900Z,31.90
2017-08-03T11:01:26.475Z,32.00
2017-08-03T11:03:54.845Z,32.00
2017-08-03T11:06:22.449Z,32.00
2017-08-03T11:08:50.071Z,32.20
2017-08-03T11:11:17.799Z,32.40
2017-08-03T11:13:45.385Z,32.50
2017-08-03T11:16:13.005Z,32.50
2017-08-03T11:18:40.585Z,32.50
2017-08-03T11:21:08.152Z,32.30
2017-08-03T11:23:36.456Z,32.40
2017-08-03T11:26:04.015Z,32.40
2017-08-03T11:28:31.604Z,32.50
2017-08-03T11:31:00.027Z,32.40
2017-08-03T11:33:27.601Z,32.40
2017-08-03T11:35:55.165Z,32.50
2017-08-03T11:38:23.555Z,32.50
2017-08-03T11:40:51.180Z,32.50
2017-08-03T11:43:18.820Z,32.50
2017-08-03T11:45:47.132Z,32.50
2017-08-03T11:48:14.703Z,32.50
2017-08-03T11:50:42.313Z,32.60
2017-08-03T11:53:09.930Z,32.70
2017-08-03T11:55:38.313Z,32.70
2017-08-03T11:58:05.959Z,32.70
2017-08-03T12:00:33.690Z,32.50
2017-08-03T12:03:02.172Z,32.40
2017-08-03T12:05:29.847Z,32.40
2017-08-03T12:07:57.486Z,32.60
2017-08-03T12:10:25.138Z,32.90
2017-08-03T12:12:52.706Z,32.90
2017-08-03T12:15:20.345Z,33.10
2017-08-03T12:17:47.960Z,33.30
2017-08-03T12:20:15.576Z,33.30
2017-08-03T12:22:43.876Z,33.10
2017-08-03T12:25:11.530Z,33.10
2017-08-03T12:27:39.115Z,33.10
2017-08-03T12:30:06.794Z,33.30
2017-08-03T12:32:34.393Z,33.50
2017-08-03T12:35:02.097Z,33.60
2017-08-03T12:37:29.773Z,33.50
2017-08-03T12:39:57.372Z,33.40
2017-08-03T12:42:25.790Z,32.80
2017-08-03T12:44:53.386Z,32.80
2017-08-03T12:47:20.963Z,32.80
2017-08-03T12:49:48.565Z,32.70
2017-08-03T12:52:16.186Z,32.40
2017-08-03T12:54:43.808Z,32.20
2017-08-03T12:57:11.457Z,32.10
2017-08-03T12:59:39.095Z,31.70
2017-08-03T13:02:06.716Z,31.70
2017-08-03T13:04:35.151Z,32.00
2017-08-03T13:07:02.760Z,32.00
2017-08-03T13:09:30.433Z,32.00
2017-08-03T13:11:58.072Z,32.00
2017-08-03T13:14:25.731Z,32.20
2017-08-03T13:16:53.289Z,32.40
2017-08-03T13:19:20.958Z,32.40
2017-08-03T13:21:49.328Z,32.40
2017-08-03T13:24:17.703Z,32.40
2017-08-03T13:26:45.338Z,32.40
2017-08-03T13:29:12.932Z,32.50
2017-08-03T13:31:40.512Z,32.70
2017-08-03T13:34:08.880Z,32.50
2017-08-03T13:36:37.276Z,32.30
2017-08-03T13:39:04.888Z,32.30
2017-08-03T13:41:33.320Z,32.20
2017-08-03T13:44:00.937Z,32.20
2017-08-03T13:46:28.567Z,32.20
2017-08-03T13:48:56.225Z,32.10
2017-08-03T13:51:23.890Z,31.90
2017-08-03T13:53:51.567Z,32.20
2017-08-03T13:56:19.180Z,32.40
2017-08-03T13:58:46.726Z,32.50
2017-08-03T14:01:14.373Z,32.50
2017-08-03T14:03:41.985Z,32.60
2017-08-03T14:06:10.386Z,32.90
2017-08-03T14:08:37.978Z,32.90
2017-08-03T14:11:05.632Z,33.00
2017-08-03T14:13:34.004Z,33.10
2017-08-03T14:16:02.433Z,33.20
2017-08-03T14:18:30.057Z,33.20
2017-08-03T14:20:57.693Z,33.20
2017-08-03T14:23:25.320Z,33.20
2017-08-03T14:25:52.962Z,33.40
2017-08-03T14:28:21.319Z,33.40
2017-08-03T14:30:49.754Z,33.30
2017-08-03T14:33:17.372Z,33.30
2017-08-03T14:35:45.037Z,33.00
2017-08-03T14:38:12.657Z,33.00
2017-08-03T14:40:40.296Z,32.70
2017-08-03T14:43:07.835Z,32.90
2017-08-03T14:45:35.374Z,33.10
2017-08-03T14:48:02.964Z,33.30
2017-08-03T14:50:30.519Z,33.50
2017-08-03T14:52:58.099Z,33.80
2017-08-03T14:55:25.652Z,34.00
2017-08-03T14:57:53.260Z,34.20
2017-08-03T15:00:20.824Z,34.50
2017-08-03T15:02:48.406Z,34.40
2017-08-03T15:05:16.036Z,34.40
2017-08-03T15:07:43.670Z,34.00
2017-08-03T15:10:12.111Z,33.20
2017-08-03T15:12:39.753Z,33.10
2017-08-03T15:15:07.345Z,33.00
2017-08-03T15:17:34.985Z,33.10
2017-08-03T15:20:03.386Z,33.10
2017-08-03T15:22:31.703Z,33.10
2017-08-03T15:25:00.063Z,33.00
2017-08-03T15:27:28.844Z,32.90
2017-08-03T15:29:57.241Z,32.90
2017-08-03T15:32:24.978Z,32.80
2017-08-03T15:34:52.520Z,32.80
2017-08-03T15:37:20.098Z,32.70
2017-08-03T15:39:47.669Z,32.70
2017-08-03T15:42:15.333Z,32.50
2017-08-03T15:44:42.927Z,32.60
2017-08-03T15:47:10.544Z,32.60
2017-08-03T15:49:38.210Z,32.50
2017-08-03T15:52:05.801Z,32.50
2017-08-03T15:54:33.462Z,32.50
2017-08-03T15:57:00.997Z,32.50
2017-08-03T15:59:28.636Z,32.40
2017-08-03T16:01:56.251Z,32.30
2017-08-03T16:04:24.850Z,32.00
2017-08-03T16:06:52.557Z,31.90
2017-08-03T16:09:20.238Z,31.70
2017-08-03T16:11:47.845Z,31.70
2017-08-03T16:14:15.521Z,31.60
2017-08-03T16:16:43.102Z,31.50
2017-08-03T16:19:10.751Z,31.30
2017-08-03T16:21:38.350Z,31.10
2017-08-03T16:24:05.940Z,31.00
2017-08-03T16:26:33.772Z,31.00
2017-08-03T16:29:01.426Z,31.00
2017-08-03T16:31:29.019Z,31.00
2017-08-03T16:33:56.616Z,30.90
2017-08-03T16:36:25.619Z,30.90
2017-08-03T16:38:53.470Z,30.70
2017-08-03T16:41:21.044Z,30.50
2017-08-03T16:43:48.692Z,30.40
2017-08-03T16:46:16.313Z,30.20
2017-08-03T16:48:44.729Z,29.90
2017-08-03T16:51:12.322Z,29.80
2017-08-03T16:53:39.895Z,29.80
2017-08-03T16:56:07.520Z,29.80
2017-08-03T17:01:09.928Z,29.80
2017-08-03T17:03:37.519Z,29.70
2017-08-03T17:06:05.162Z,29.60
2017-08-03T17:08:32.768Z,29.40
2017-08-03T17:11:00.539Z,29.20
2017-08-03T17:13:28.143Z,29.10
2017-08-03T17:15:55.791Z,29.00
2017-08-03T17:18:23.428Z,29.10
2017-08-03T17:20:51.120Z,29.10
2017-08-03T17:23:18.693Z,29.00
2017-08-03T17:25:47.047Z,28.70
2017-08-03T17:28:14.668Z,28.70
2017-08-03T17:30:42.286Z,28.60
2017-08-03T17:33:09.910Z,28.60
2017-08-03T17:35:37.472Z,28.50
2017-08-03T17:38:05.100Z,28.50
2017-08-03T17:40:33.465Z,28.30
2017-08-03T17:43:01.868Z,28.10
2017-08-03T17:45:29.497Z,28.10
2017-08-03T17:47:57.080Z,28.10
2017-08-03T17:50:24.662Z,28.10
2017-08-03T17:52:53.061Z,28.00
2017-08-03T17:55:20.692Z,28.00
2017-08-03T17:57:48.272Z,28.00
2017-08-03T18:00:15.836Z,28.00
2017-08-03T18:02:43.408Z,27.90
2017-08-03T18:05:11.713Z,27.80
2017-08-03T18:07:39.284Z,27.80
2017-08-03T18:10:06.864Z,27.80
2017-08-03T18:12:35.269Z,27.60
2017-08-03T18:15:02.856Z,27.50
2017-08-03T18:17:30.470Z,27.40
2017-08-03T18:19:58.100Z,27.30
2017-08-03T18:22:26.182Z,27.10
2017-08-03T18:24:53.822Z,27.00
2017-08-03T18:27:21.420Z,26.90
2017-08-03T18:29:49.845Z,26.90
2017-08-03T18:32:17.453Z,26.80
2017-08-03T18:34:45.120Z,26.70
2017-08-03T18:37:14.240Z,26.50
2017-08-03T18:39:41.974Z,26.30
2017-08-03T18:42:09.672Z,26.30
2017-08-03T18:44:38.081Z,26.20
2017-08-03T18:47:05.681Z,26.20
2017-08-03T18:49:34.079Z,26.10
2017-08-03T18:52:01.716Z,26.20
2017-08-03T18:54:29.368Z,26.10
2017-08-03T18:56:56.945Z,25.90
2017-08-03T18:59:24.991Z,25.80
2017-08-03T19:01:52.569Z,25.70
2017-08-03T19:04:20.190Z,25.50
2017-08-03T19:06:48.260Z,25.50
2017-08-03T19:09:15.827Z,25.50
2017-08-03T19:11:44.206Z,25.30
2017-08-03T19:14:11.802Z,25.30
2017-08-03T19:16:39.362Z,25.20
2017-08-03T19:19:07.011Z,25.10
2017-08-03T19:21:34.635Z,25.10
2017-08-03T19:24:02.277Z,25.10
2017-08-03T19:26:29.825Z,25.00
2017-08-03T19:28:57.391Z,25.00
2017-08-03T19:31:25.788Z,24.90
2017-08-03T19:33:54.123Z,24.90
2017-08-03T19:36:21.699Z,24.90
2017-08-03T19:38:50.011Z,24.90
2017-08-03T19:41:17.585Z,24.90
2017-08-03T19:43:45.195Z,24.90
2017-08-03T19:46:12.783Z,24.90
2017-08-03T19:48:40.389Z,24.80
2017-08-03T19:51:07.963Z,24.80
2017-08-03T19:53:35.554Z,24.90
2017-08-03T19:56:03.133Z,24.80
2017-08-03T19:58:30.679Z,24.90
2017-08-03T20:00:58.313Z,24.70
2017-08-03T20:03:26.027Z,24.70
2017-08-03T20:05:59.785Z,24.70
2017-08-03T20:08:37.787Z,24.70
2017-08-03T20:13:58.587Z,24.50
2017-08-03T20:16:27.697Z,24.60
2017-08-03T20:18:57.754Z,24.60
2017-08-03T20:21:27.791Z,24.50
2017-08-03T20:23:56.352Z,24.40
2017-08-03T20:26:33.552Z,24.30
2017-08-03T20:29:07.263Z,24.30
2017-08-03T20:31:36.051Z,24.20
2017-08-03T20:34:07.955Z,24.10
2017-08-03T20:36:38.684Z,24.10
2017-08-03T20:39:09.854Z,24.10
2017-08-03T20:41:39.667Z,24.10
2017-08-03T20:44:10.933Z,24.10
2017-08-03T20:46:39.760Z,24.10
2017-08-03T20:49:10.089Z,24.10
2017-08-03T20:51:42.444Z,24.00
2017-08-03T20:54:11.430Z,24.00
2017-08-03T20:56:39.952Z,24.00
2017-08-03T20:59:07.955Z,23.90
2017-08-03T21:01:35.647Z,24.00
2017-08-03T21:04:03.255Z,24.10
2017-08-03T21:06:30.970Z,24.00
2017-08-03T21:08:59.404Z,23.90
2017-08-03T21:11:27.233Z,23.90
2017-08-03T21:13:54.916Z,23.80
2017-08-03T21:16:22.612Z,23.90
2017-08-03T21:18:50.290Z,23.80
2017-08-03T21:21:18.295Z,23.90
2017-08-03T21:23:49.284Z,23.80
2017-08-03T21:26:17.020Z,23.80
2017-08-03T21:31:23.424Z,23.60
2017-08-03T21:33:51.327Z,23.60
2017-08-03T21:36:19.103Z,23.60
2017-08-03T21:38:50.657Z,23.60
2017-08-03T21:41:19.368Z,23.60
2017-08-03T21:43:47.959Z,23.60
2017-08-03T21:49:09.555Z,23.70
2017-08-03T21:54:17.808Z,23.80
2017-08-03T21:56:45.592Z,23.80
2017-08-03T21:59:13.522Z,23.70
2017-08-03T22:01:45.530Z,23.70
2017-08-03T22:04:15.324Z,23.80
2017-08-03T22:06:43.097Z,23.70
2017-08-03T22:09:10.757Z,23.80
2017-08-03T22:11:38.378Z,23.70
2017-08-03T22:14:05.927Z,23.60
2017-08-03T22:16:33.463Z,23.60
2017-08-03T22:19:01.047Z,23.60
2017-08-03T22:21:28.616Z,23.60
2017-08-03T22:23:56.204Z,23.50
2017-08-03T22:26:23.783Z,23.50
2017-08-03T22:28:51.380Z,23.50
2017-08-03T22:31:18.961Z,23.50
2017-08-03T22:33:46.562Z,23.60
2017-08-03T22:36:14.137Z,23.50
2017-08-03T22:38:41.781Z,23.50
2017-08-03T22:41:09.331Z,23.50
2017-08-03T22:43:36.937Z,23.60
2017-08-03T22:46:04.480Z,23.50
2017-08-03T22:48:32.064Z,23.40
2017-08-03T22:51:00.096Z,23.40
2017-08-03T22:53:27.684Z,23.30
2017-08-03T22:55:55.239Z,23.30
2017-08-03T22:58:22.824Z,23.30
2017-08-03T23:00:50.363Z,23.20
2017-08-03T23:03:17.930Z,23.20
2017-08-03T23:05:45.475Z,23.10
2017-08-03T23:08:13.083Z,22.90
2017-08-03T23:10:40.623Z,22.80
2017-08-03T23:13:08.218Z,22.90
2017-08-03T23:15:35.760Z,22.80
2017-08-03T23:18:03.344Z,22.70
2017-08-03T23:20:31.306Z,22.80
2017-08-03T23:22:58.908Z,22.70
2017-08-03T23:25:26.661Z,22.50
2017-08-03T23:27:54.307Z,22.50
2017-08-03T23:30:21.867Z,22.60
2017-08-03T23:32:49.447Z,22.40
2017-08-03T23:35:16.984Z,22.40
2017-08-03T23:37:44.555Z,22.50
2017-08-03T23:40:12.116Z,22.50
2017-08-03T23:42:39.711Z,22.50
2017-08-03T23:45:07.282Z,22.50
2017-08-03T23:47:34.897Z,22.50
2017-08-03T23:50:02.470Z,22.50
2017-08-03T23:52:30.647Z,22.50
2017-08-03T23:54:58.225Z,22.60
2017-08-03T23:57:25.857Z,22.60
2017-08-03T23:59:53.440Z,22.60
